« Back
NWS Peachtree City, Ga » Text Product » MCN Terminal Aerodrome Forecast


Printer-friendly Version
Current Version              Previous Versions:   1  2  3  4  5  6  7  8  9  

Terminal Aerodrome Forecast

395
FTUS42 KFFC 300300 AAA
TAFMCN
TAF AMD
KMCN 300308Z 3003/3024 05007KT P6SM SCT008 BKN012
     FM300500 05004KT 4SM BR BKN008
     FM300700 05004KT 3SM BR OVC004
     FM301400 03005KT 6SM BR BKN012
     FM301700 04006KT P6SM SCT040=



USA.gov is the U.S. government's official web portal to all federal, state and local government web resources and services.